sensor_id;sensor_type;location;lat;lon;timestamp;P1;durP1;ratioP1;P2;durP2;ratioP2
23179;SDS011;11758;45.756;11.432;2023-05-10T00:02:13;2.92;;;2.70;;
23179;SDS011;11758;45.756;11.432;2023-05-10T00:04:39;3.47;;;2.90;;
23179;SDS011;11758;45.756;11.432;2023-05-10T00:07:06;2.92;;;2.83;;
23179;SDS011;11758;45.756;11.432;2023-05-10T00:09:32;4.28;;;3.10;;
23179;SDS011;11758;45.756;11.432;2023-05-10T00:11:58;3.25;;;3.00;;
23179;SDS011;11758;45.756;11.432;2023-05-10T00:14:24;4.50;;;3.17;;
23179;SDS011;11758;45.756;11.432;2023-05-10T00:16:50;3.33;;;2.85;;
23179;SDS011;11758;45.756;11.432;2023-05-10T00:19:16;6.57;;;3.03;;
23179;SDS011;11758;45.756;11.432;2023-05-10T00:21:43;4.50;;;3.05;;
23179;SDS011;11758;45.756;11.432;2023-05-10T00:24:09;2.72;;;2.63;;
23179;SDS011;11758;45.756;11.432;2023-05-10T00:26:35;3.30;;;3.00;;
23179;SDS011;11758;45.756;11.432;2023-05-10T00:29:01;4.28;;;3.28;;
23179;SDS011;11758;45.756;11.432;2023-05-10T00:31:27;3.42;;;3.17;;
23179;SDS011;11758;45.756;11.432;2023-05-10T00:33:54;3.92;;;3.63;;
23179;SDS011;11758;45.756;11.432;2023-05-10T00:36:20;3.15;;;2.95;;
23179;SDS011;11758;45.756;11.432;2023-05-10T00:38:46;6.53;;;3.25;;
23179;SDS011;11758;45.756;11.432;2023-05-10T00:41:12;3.33;;;3.10;;
23179;SDS011;11758;45.756;11.432;2023-05-10T00:43:38;2.70;;;2.60;;
23179;SDS011;11758;45.756;11.432;2023-05-10T00:46:04;3.17;;;2.97;;
23179;SDS011;11758;45.756;11.432;2023-05-10T00:48:31;3.55;;;2.80;;
23179;SDS011;11758;45.756;11.432;2023-05-10T00:50:57;5.93;;;2.75;;
23179;SDS011;11758;45.756;11.432;2023-05-10T00:53:24;4.35;;;2.60;;
23179;SDS011;11758;45.756;11.432;2023-05-10T00:55:50;2.88;;;2.67;;
23179;SDS011;11758;45.756;11.432;2023-05-10T00:58:16;3.13;;;3.03;;
23179;SDS011;11758;45.756;11.432;2023-05-10T01:00:43;3.00;;;2.80;;
23179;SDS011;11758;45.756;11.432;2023-05-10T01:03:10;4.38;;;3.05;;
23179;SDS011;11758;45.756;11.432;2023-05-10T01:05:36;2.50;;;2.40;;
23179;SDS011;11758;45.756;11.432;2023-05-10T01:08:02;3.70;;;2.72;;
23179;SDS011;11758;45.756;11.432;2023-05-10T01:10:29;3.38;;;3.17;;
23179;SDS011;11758;45.756;11.432;2023-05-10T01:12:55;6.43;;;2.80;;
23179;SDS011;11758;45.756;11.432;2023-05-10T01:15:21;2.95;;;2.78;;
23179;SDS011;11758;45.756;11.432;2023-05-10T01:17:48;2.72;;;2.53;;
23179;SDS011;11758;45.756;11.432;2023-05-10T01:20:14;3.50;;;2.67;;
23179;SDS011;11758;45.756;11.432;2023-05-10T01:35:30;5.90;;;2.83;;
23179;SDS011;11758;45.756;11.432;2023-05-10T01:37:59;4.10;;;2.58;;
23179;SDS011;11758;45.756;11.432;2023-05-10T01:40:44;3.40;;;3.10;;
23179;SDS011;11758;45.756;11.432;2023-05-10T01:43:17;3.15;;;2.95;;
23179;SDS011;11758;45.756;11.432;2023-05-10T01:48:23;5.78;;;3.15;;
23179;SDS011;11758;45.756;11.432;2023-05-10T01:50:50;4.30;;;3.05;;
23179;SDS011;11758;45.756;11.432;2023-05-10T01:53:17;3.25;;;3.00;;
23179;SDS011;11758;45.756;11.432;2023-05-10T01:55:48;3.85;;;2.78;;
23179;SDS011;11758;45.756;11.432;2023-05-10T01:58:17;3.50;;;3.20;;
23179;SDS011;11758;45.756;11.432;2023-05-10T02:00:44;3.25;;;3.15;;
23179;SDS011;11758;45.756;11.432;2023-05-10T02:03:11;3.60;;;3.22;;
23179;SDS011;11758;45.756;11.432;2023-05-10T02:05:38;3.15;;;3.00;;
23179;SDS011;11758;45.756;11.432;2023-05-10T02:08:06;3.13;;;2.83;;
23179;SDS011;11758;45.756;11.432;2023-05-10T02:10:34;3.15;;;2.88;;
23179;SDS011;11758;45.756;11.432;2023-05-10T02:13:01;3.58;;;3.28;;
23179;SDS011;11758;45.756;11.432;2023-05-10T02:15:28;3.30;;;3.03;;
23179;SDS011;11758;45.756;11.432;2023-05-10T02:17:55;3.53;;;3.22;;
23179;SDS011;11758;45.756;11.432;2023-05-10T02:20:22;3.60;;;3.40;;
23179;SDS011;11758;45.756;11.432;2023-05-10T02:22:49;3.28;;;3.08;;
23179;SDS011;11758;45.756;11.432;2023-05-10T02:25:16;3.25;;;3.10;;
23179;SDS011;11758;45.756;11.432;2023-05-10T02:27:43;3.35;;;3.15;;
23179;SDS011;11758;45.756;11.432;2023-05-10T02:30:10;3.53;;;3.22;;
23179;SDS011;11758;45.756;11.432;2023-05-10T02:32:36;3.05;;;2.92;;
23179;SDS011;11758;45.756;11.432;2023-05-10T02:35:03;3.38;;;3.08;;
23179;SDS011;11758;45.756;11.432;2023-05-10T02:37:29;4.47;;;3.13;;
23179;SDS011;11758;45.756;11.432;2023-05-10T02:39:56;3.38;;;3.17;;
23179;SDS011;11758;45.756;11.432;2023-05-10T02:42:24;3.70;;;3.38;;
23179;SDS011;11758;45.756;11.432;2023-05-10T02:44:52;5.00;;;3.33;;
23179;SDS011;11758;45.756;11.432;2023-05-10T02:47:18;4.43;;;2.80;;
23179;SDS011;11758;45.756;11.432;2023-05-10T02:49:45;3.60;;;3.30;;
23179;SDS011;11758;45.756;11.432;2023-05-10T02:52:11;3.55;;;3.20;;
23179;SDS011;11758;45.756;11.432;2023-05-10T02:54:45;2.90;;;2.80;;
23179;SDS011;11758;45.756;11.432;2023-05-10T02:57:15;3.50;;;3.20;;
23179;SDS011;11758;45.756;11.432;2023-05-10T02:59:44;3.58;;;2.85;;
23179;SDS011;11758;45.756;11.432;2023-05-10T03:02:11;5.13;;;3.30;;
23179;SDS011;11758;45.756;11.432;2023-05-10T03:04:38;3.00;;;2.85;;
23179;SDS011;11758;45.756;11.432;2023-05-10T03:07:04;2.80;;;2.60;;
23179;SDS011;11758;45.756;11.432;2023-05-10T03:09:30;3.30;;;3.10;;
23179;SDS011;11758;45.756;11.432;2023-05-10T03:19:48;3.25;;;3.05;;
23179;SDS011;11758;45.756;11.432;2023-05-10T03:22:21;3.20;;;3.00;;
23179;SDS011;11758;45.756;11.432;2023-05-10T03:24:49;3.40;;;3.10;;
23179;SDS011;11758;45.756;11.432;2023-05-10T03:27:16;3.55;;;3.17;;
23179;SDS011;11758;45.756;11.432;2023-05-10T03:29:43;4.65;;;3.00;;
23179;SDS011;11758;45.756;11.432;2023-05-10T03:32:11;3.28;;;3.08;;
23179;SDS011;11758;45.756;11.432;2023-05-10T03:34:41;3.30;;;3.10;;
23179;SDS011;11758;45.756;11.432;2023-05-10T03:37:08;3.42;;;3.22;;
23179;SDS011;11758;45.756;11.432;2023-05-10T03:39:34;5.00;;;3.20;;
23179;SDS011;11758;45.756;11.432;2023-05-10T03:42:00;3.72;;;3.35;;
23179;SDS011;11758;45.756;11.432;2023-05-10T03:44:26;3.72;;;3.20;;
23179;SDS011;11758;45.756;11.432;2023-05-10T03:46:53;3.47;;;3.17;;
23179;SDS011;11758;45.756;11.432;2023-05-10T03:49:19;3.63;;;3.05;;
23179;SDS011;11758;45.756;11.432;2023-05-10T03:51:45;3.50;;;3.20;;
23179;SDS011;11758;45.756;11.432;2023-05-10T03:54:11;6.70;;;3.15;;
23179;SDS011;11758;45.756;11.432;2023-05-10T03:56:37;3.90;;;2.80;;
23179;SDS011;11758;45.756;11.432;2023-05-10T03:59:03;4.63;;;3.55;;
23179;SDS011;11758;45.756;11.432;2023-05-10T04:01:33;3.25;;;3.03;;
23179;SDS011;11758;45.756;11.432;2023-05-10T04:03:59;4.28;;;3.17;;
23179;SDS011;11758;45.756;11.432;2023-05-10T04:06:25;2.90;;;2.70;;
23179;SDS011;11758;45.756;11.432;2023-05-10T04:08:51;4.07;;;2.85;;
23179;SDS011;11758;45.756;11.432;2023-05-10T04:11:17;3.20;;;3.00;;
23179;SDS011;11758;45.756;11.432;2023-05-10T04:13:43;3.08;;;2.88;;
23179;SDS011;11758;45.756;11.432;2023-05-10T04:16:09;6.70;;;3.08;;
23179;SDS011;11758;45.756;11.432;2023-05-10T04:18:35;3.65;;;3.28;;
23179;SDS011;11758;45.756;11.432;2023-05-10T04:21:02;5.97;;;3.58;;
23179;SDS011;11758;45.756;11.432;2023-05-10T04:23:28;4.05;;;3.10;;
23179;SDS011;11758;45.756;11.432;2023-05-10T04:26:00;3.38;;;3.05;;
23179;SDS011;11758;45.756;11.432;2023-05-10T04:28:26;3.30;;;3.10;;
23179;SDS011;11758;45.756;11.432;2023-05-10T04:30:53;3.25;;;3.00;;
23179;SDS011;11758;45.756;11.432;2023-05-10T04:33:19;3.20;;;3.00;;
23179;SDS011;11758;45.756;11.432;2023-05-10T04:35:45;2.92;;;2.83;;
23179;SDS011;11758;45.756;11.432;2023-05-10T04:38:11;3.17;;;3.00;;
23179;SDS011;11758;45.756;11.432;2023-05-10T04:40:37;2.90;;;2.75;;
23179;SDS011;11758;45.756;11.432;2023-05-10T04:43:03;7.72;;;2.88;;
23179;SDS011;11758;45.756;11.432;2023-05-10T04:45:29;3.25;;;3.00;;
23179;SDS011;11758;45.756;11.432;2023-05-10T04:47:55;4.10;;;3.17;;
23179;SDS011;11758;45.756;11.432;2023-05-10T04:50:22;3.78;;;2.53;;
23179;SDS011;11758;45.756;11.432;2023-05-10T04:52:48;2.78;;;2.67;;
23179;SDS011;11758;45.756;11.432;2023-05-10T04:55:14;2.60;;;2.50;;
23179;SDS011;11758;45.756;11.432;2023-05-10T04:57:40;2.97;;;2.88;;
23179;SDS011;11758;45.756;11.432;2023-05-10T05:00:06;3.38;;;3.17;;
23179;SDS011;11758;45.756;11.432;2023-05-10T05:02:33;2.95;;;2.65;;
23179;SDS011;11758;45.756;11.432;2023-05-10T05:04:59;3.20;;;3.00;;
23179;SDS011;11758;45.756;11.432;2023-05-10T05:07:25;3.78;;;3.25;;
23179;SDS011;11758;45.756;11.432;2023-05-10T05:09:51;3.30;;;3.10;;
23179;SDS011;11758;45.756;11.432;2023-05-10T05:12:17;3.42;;;3.17;;
23179;SDS011;11758;45.756;11.432;2023-05-10T05:14:43;5.70;;;3.00;;
23179;SDS011;11758;45.756;11.432;2023-05-10T05:17:09;3.17;;;2.90;;
23179;SDS011;11758;45.756;11.432;2023-05-10T05:19:36;3.40;;;3.20;;
23179;SDS011;11758;45.756;11.432;2023-05-10T05:22:02;3.88;;;3.40;;
23179;SDS011;11758;45.756;11.432;2023-05-10T05:24:28;3.17;;;3.08;;
23179;SDS011;11758;45.756;11.432;2023-05-10T05:26:54;8.35;;;3.22;;
23179;SDS011;11758;45.756;11.432;2023-05-10T05:29:20;3.47;;;2.90;;
23179;SDS011;11758;45.756;11.432;2023-05-10T05:31:46;3.30;;;3.10;;
23179;SDS011;11758;45.756;11.432;2023-05-10T05:34:12;3.42;;;3.13;;
23179;SDS011;11758;45.756;11.432;2023-05-10T05:36:38;3.30;;;3.10;;
23179;SDS011;11758;45.756;11.432;2023-05-10T05:39:04;4.95;;;3.00;;
23179;SDS011;11758;45.756;11.432;2023-05-10T05:41:30;3.08;;;2.90;;
23179;SDS011;11758;45.756;11.432;2023-05-10T05:43:57;4.88;;;3.10;;
23179;SDS011;11758;45.756;11.432;2023-05-10T05:46:23;3.72;;;3.42;;
23179;SDS011;11758;45.756;11.432;2023-05-10T05:48:49;3.72;;;3.20;;
23179;SDS011;11758;45.756;11.432;2023-05-10T05:51:15;3.50;;;3.30;;
23179;SDS011;11758;45.756;11.432;2023-05-10T05:53:42;3.80;;;3.50;;
23179;SDS011;11758;45.756;11.432;2023-05-10T05:56:08;3.47;;;3.28;;
23179;SDS011;11758;45.756;11.432;2023-05-10T05:58:34;4.00;;;3.60;;
23179;SDS011;11758;45.756;11.432;2023-05-10T06:01:00;3.40;;;3.20;;
23179;SDS011;11758;45.756;11.432;2023-05-10T06:03:27;3.28;;;2.95;;
23179;SDS011;11758;45.756;11.432;2023-05-10T06:05:53;4.75;;;3.25;;
23179;SDS011;11758;45.756;11.432;2023-05-10T06:08:19;3.35;;;3.10;;
23179;SDS011;11758;45.756;11.432;2023-05-10T06:10:45;3.72;;;3.45;;
23179;SDS011;11758;45.756;11.432;2023-05-10T06:13:11;3.83;;;3.40;;
23179;SDS011;11758;45.756;11.432;2023-05-10T06:15:38;3.30;;;3.10;;
23179;SDS011;11758;45.756;11.432;2023-05-10T06:18:04;3.33;;;3.13;;
23179;SDS011;11758;45.756;11.432;2023-05-10T06:20:30;5.22;;;3.35;;
23179;SDS011;11758;45.756;11.432;2023-05-10T06:22:57;3.60;;;3.30;;
23179;SDS011;11758;45.756;11.432;2023-05-10T06:25:23;3.95;;;3.50;;
23179;SDS011;11758;45.756;11.432;2023-05-10T06:27:49;4.70;;;2.80;;
23179;SDS011;11758;45.756;11.432;2023-05-10T06:30:15;3.65;;;2.80;;
23179;SDS011;11758;45.756;11.432;2023-05-10T06:32:41;3.90;;;3.60;;
23179;SDS011;11758;45.756;11.432;2023-05-10T06:35:09;3.80;;;3.58;;
23179;SDS011;11758;45.756;11.432;2023-05-10T06:37:35;3.47;;;3.17;;
23179;SDS011;11758;45.756;11.432;2023-05-10T06:40:01;5.38;;;3.40;;
23179;SDS011;11758;45.756;11.432;2023-05-10T06:42:27;3.58;;;3.03;;
23179;SDS011;11758;45.756;11.432;2023-05-10T06:44:53;3.80;;;3.45;;
23179;SDS011;11758;45.756;11.432;2023-05-10T06:47:19;3.63;;;3.38;;
23179;SDS011;11758;45.756;11.432;2023-05-10T06:49:45;3.42;;;3.13;;
23179;SDS011;11758;45.756;11.432;2023-05-10T06:52:11;3.28;;;3.08;;
23179;SDS011;11758;45.756;11.432;2023-05-10T06:54:38;3.75;;;2.90;;
23179;SDS011;11758;45.756;11.432;2023-05-10T06:57:04;3.45;;;3.20;;
23179;SDS011;11758;45.756;11.432;2023-05-10T06:59:30;10.25;;;3.63;;
23179;SDS011;11758;45.756;11.432;2023-05-10T07:01:56;3.40;;;3.10;;
23179;SDS011;11758;45.756;11.432;2023-05-10T07:04:22;4.22;;;3.47;;
23179;SDS011;11758;45.756;11.432;2023-05-10T07:06:48;3.88;;;3.58;;
23179;SDS011;11758;45.756;11.432;2023-05-10T07:09:15;6.28;;;3.53;;
23179;SDS011;11758;45.756;11.432;2023-05-10T07:11:41;3.58;;;3.28;;
23179;SDS011;11758;45.756;11.432;2023-05-10T07:14:07;4.63;;;3.40;;
23179;SDS011;11758;45.756;11.432;2023-05-10T07:16:33;4.28;;;3.35;;
23179;SDS011;11758;45.756;11.432;2023-05-10T07:18:59;3.63;;;3.20;;
23179;SDS011;11758;45.756;11.432;2023-05-10T07:21:25;3.85;;;3.40;;
23179;SDS011;11758;45.756;11.432;2023-05-10T07:23:53;7.47;;;3.25;;
23179;SDS011;11758;45.756;11.432;2023-05-10T07:26:19;7.07;;;3.30;;
23179;SDS011;11758;45.756;11.432;2023-05-10T07:28:46;3.42;;;3.22;;
23179;SDS011;11758;45.756;11.432;2023-05-10T07:31:12;3.35;;;3.15;;
23179;SDS011;11758;45.756;11.432;2023-05-10T07:33:38;3.50;;;3.30;;
23179;SDS011;11758;45.756;11.432;2023-05-10T07:36:10;7.68;;;4.22;;
23179;SDS011;11758;45.756;11.432;2023-05-10T07:38:41;4.07;;;3.30;;
23179;SDS011;11758;45.756;11.432;2023-05-10T07:41:11;5.20;;;3.58;;
23179;SDS011;11758;45.756;11.432;2023-05-10T07:43:37;4.20;;;3.33;;
23179;SDS011;11758;45.756;11.432;2023-05-10T07:46:03;4.18;;;3.58;;
23179;SDS011;11758;45.756;11.432;2023-05-10T07:48:30;5.55;;;3.50;;
23179;SDS011;11758;45.756;11.432;2023-05-10T07:50:56;4.05;;;3.75;;
23179;SDS011;11758;45.756;11.432;2023-05-10T07:53:22;3.58;;;3.33;;
23179;SDS011;11758;45.756;11.432;2023-05-10T07:55:57;4.25;;;3.95;;
23179;SDS011;11758;45.756;11.432;2023-05-10T07:58:23;5.18;;;4.68;;
23179;SDS011;11758;45.756;11.432;2023-05-10T08:00:50;4.57;;;4.28;;
23179;SDS011;11758;45.756;11.432;2023-05-10T08:03:16;5.60;;;4.32;;
23179;SDS011;11758;45.756;11.432;2023-05-10T08:05:42;6.90;;;4.45;;
23179;SDS011;11758;45.756;11.432;2023-05-10T08:08:08;4.40;;;4.10;;
23179;SDS011;11758;45.756;11.432;2023-05-10T08:10:34;6.43;;;4.28;;
23179;SDS011;11758;45.756;11.432;2023-05-10T08:13:00;9.02;;;4.38;;
23179;SDS011;11758;45.756;11.432;2023-05-10T08:15:26;6.88;;;4.80;;
23179;SDS011;11758;45.756;11.432;2023-05-10T08:17:52;5.57;;;5.10;;
23179;SDS011;11758;45.756;11.432;2023-05-10T08:20:19;5.18;;;4.68;;
23179;SDS011;11758;45.756;11.432;2023-05-10T08:22:45;6.55;;;4.75;;
23179;SDS011;11758;45.756;11.432;2023-05-10T08:25:12;4.57;;;4.28;;
23179;SDS011;11758;45.756;11.432;2023-05-10T08:27:38;3.97;;;3.65;;
23179;SDS011;11758;45.756;11.432;2023-05-10T08:30:04;5.00;;;4.60;;
23179;SDS011;11758;45.756;11.432;2023-05-10T08:32:31;5.15;;;4.35;;
23179;SDS011;11758;45.756;11.432;2023-05-10T08:34:57;5.65;;;4.03;;
23179;SDS011;11758;45.756;11.432;2023-05-10T08:37:23;5.72;;;4.47;;
23179;SDS011;11758;45.756;11.432;2023-05-10T08:39:50;5.03;;;4.00;;
23179;SDS011;11758;45.756;11.432;2023-05-10T08:45:19;4.47;;;4.10;;
23179;SDS011;11758;45.756;11.432;2023-05-10T08:47:45;5.38;;;4.43;;
23179;SDS011;11758;45.756;11.432;2023-05-10T08:50:12;5.05;;;4.45;;
23179;SDS011;11758;45.756;11.432;2023-05-10T08:52:38;7.18;;;5.03;;
23179;SDS011;11758;45.756;11.432;2023-05-10T08:55:06;6.25;;;4.97;;
23179;SDS011;11758;45.756;11.432;2023-05-10T08:57:32;5.70;;;4.80;;
23179;SDS011;11758;45.756;11.432;2023-05-10T08:59:59;9.20;;;4.28;;
23179;SDS011;11758;45.756;11.432;2023-05-10T09:02:26;5.28;;;3.58;;
23179;SDS011;11758;45.756;11.432;2023-05-10T09:04:52;3.85;;;3.53;;
23179;SDS011;11758;45.756;11.432;2023-05-10T09:07:18;3.38;;;3.08;;
23179;SDS011;11758;45.756;11.432;2023-05-10T09:09:45;4.13;;;3.67;;
23179;SDS011;11758;45.756;11.432;2023-05-10T09:12:12;4.25;;;3.95;;
23179;SDS011;11758;45.756;11.432;2023-05-10T09:14:40;5.60;;;3.60;;
23179;SDS011;11758;45.756;11.432;2023-05-10T09:17:08;3.67;;;3.33;;
23179;SDS011;11758;45.756;11.432;2023-05-10T09:19:35;2.88;;;2.78;;
23179;SDS011;11758;45.756;11.432;2023-05-10T09:22:01;2.80;;;2.70;;
23179;SDS011;11758;45.756;11.432;2023-05-10T09:24:28;4.30;;;3.05;;
23179;SDS011;11758;45.756;11.432;2023-05-10T09:26:55;3.33;;;3.08;;
23179;SDS011;11758;45.756;11.432;2023-05-10T09:29:22;2.83;;;2.72;;
23179;SDS011;11758;45.756;11.432;2023-05-10T09:31:49;2.80;;;2.67;;
23179;SDS011;11758;45.756;11.432;2023-05-10T09:34:19;3.20;;;3.10;;
23179;SDS011;11758;45.756;11.432;2023-05-10T09:39:35;3.20;;;3.00;;
23179;SDS011;11758;45.756;11.432;2023-05-10T09:45:12;4.13;;;3.78;;
23179;SDS011;11758;45.756;11.432;2023-05-10T09:47:38;5.20;;;4.00;;
23179;SDS011;11758;45.756;11.432;2023-05-10T09:50:05;4.20;;;3.90;;
23179;SDS011;11758;45.756;11.432;2023-05-10T09:52:35;5.18;;;4.78;;
23179;SDS011;11758;45.756;11.432;2023-05-10T09:55:21;5.40;;;4.90;;
23179;SDS011;11758;45.756;11.432;2023-05-10T09:57:48;6.68;;;4.47;;
23179;SDS011;11758;45.756;11.432;2023-05-10T10:00:18;5.15;;;4.63;;
23179;SDS011;11758;45.756;11.432;2023-05-10T10:02:54;4.68;;;4.22;;
23179;SDS011;11758;45.756;11.432;2023-05-10T10:05:20;6.68;;;4.10;;
23179;SDS011;11758;45.756;11.432;2023-05-10T10:07:46;3.90;;;3.60;;
23179;SDS011;11758;45.756;11.432;2023-05-10T10:10:15;3.90;;;3.60;;
23179;SDS011;11758;45.756;11.432;2023-05-10T10:12:41;3.95;;;3.38;;
23179;SDS011;11758;45.756;11.432;2023-05-10T10:15:08;3.63;;;3.10;;
23179;SDS011;11758;45.756;11.432;2023-05-10T10:17:35;3.58;;;3.38;;
23179;SDS011;11758;45.756;11.432;2023-05-10T10:20:03;4.63;;;3.30;;
23179;SDS011;11758;45.756;11.432;2023-05-10T10:22:29;4.47;;;4.07;;
23179;SDS011;11758;45.756;11.432;2023-05-10T10:24:56;4.60;;;4.20;;
23179;SDS011;11758;45.756;11.432;2023-05-10T10:35:29;6.50;;;4.80;;
23179;SDS011;11758;45.756;11.432;2023-05-10T10:37:55;5.03;;;4.38;;
23179;SDS011;11758;45.756;11.432;2023-05-10T10:40:25;5.38;;;4.60;;
23179;SDS011;11758;45.756;11.432;2023-05-10T10:42:51;4.70;;;4.30;;
23179;SDS011;11758;45.756;11.432;2023-05-10T10:45:18;4.75;;;4.32;;
23179;SDS011;11758;45.756;11.432;2023-05-10T10:47:46;5.38;;;4.15;;
23179;SDS011;11758;45.756;11.432;2023-05-10T10:50:12;5.40;;;4.50;;
23179;SDS011;11758;45.756;11.432;2023-05-10T10:52:42;4.50;;;4.10;;
23179;SDS011;11758;45.756;11.432;2023-05-10T10:57:55;4.93;;;3.90;;
23179;SDS011;11758;45.756;11.432;2023-05-10T11:00:29;3.78;;;3.50;;
23179;SDS011;11758;45.756;11.432;2023-05-10T11:03:09;3.45;;;3.25;;
23179;SDS011;11758;45.756;11.432;2023-05-10T11:10:54;4.60;;;3.30;;
23179;SDS011;11758;45.756;11.432;2023-05-10T11:15:54;4.50;;;4.13;;
23179;SDS011;11758;45.756;11.432;2023-05-10T11:18:25;5.60;;;4.45;;
23179;SDS011;11758;45.756;11.432;2023-05-10T11:20:52;4.47;;;4.07;;
23179;SDS011;11758;45.756;11.432;2023-05-10T11:23:18;8.13;;;4.13;;
23179;SDS011;11758;45.756;11.432;2023-05-10T11:25:46;3.95;;;3.75;;
23179;SDS011;11758;45.756;11.432;2023-05-10T11:28:12;4.43;;;4.03;;
23179;SDS011;11758;45.756;11.432;2023-05-10T11:30:38;3.90;;;3.22;;
23179;SDS011;11758;45.756;11.432;2023-05-10T11:33:05;4.07;;;3.80;;
23179;SDS011;11758;45.756;11.432;2023-05-10T11:35:36;3.45;;;3.17;;
23179;SDS011;11758;45.756;11.432;2023-05-10T11:38:07;4.43;;;3.78;;
23179;SDS011;11758;45.756;11.432;2023-05-10T11:40:34;3.78;;;3.58;;
23179;SDS011;11758;45.756;11.432;2023-05-10T11:43:00;4.15;;;3.85;;
23179;SDS011;11758;45.756;11.432;2023-05-10T11:45:26;4.90;;;4.50;;
23179;SDS011;11758;45.756;11.432;2023-05-10T11:47:57;4.82;;;4.50;;
23179;SDS011;11758;45.756;11.432;2023-05-10T11:50:23;4.80;;;4.45;;
23179;SDS011;11758;45.756;11.432;2023-05-10T11:52:53;9.07;;;6.05;;
23179;SDS011;11758;45.756;11.432;2023-05-10T11:55:19;6.72;;;4.60;;
23179;SDS011;11758;45.756;11.432;2023-05-10T11:57:45;4.68;;;4.32;;
23179;SDS011;11758;45.756;11.432;2023-05-10T12:00:12;5.25;;;4.75;;
23179;SDS011;11758;45.756;11.432;2023-05-10T12:02:39;6.88;;;4.70;;
23179;SDS011;11758;45.756;11.432;2023-05-10T12:05:05;5.25;;;4.85;;
23179;SDS011;11758;45.756;11.432;2023-05-10T12:07:32;6.68;;;4.88;;
23179;SDS011;11758;45.756;11.432;2023-05-10T12:10:11;5.97;;;4.40;;
23179;SDS011;11758;45.756;11.432;2023-05-10T12:12:46;4.90;;;4.53;;
23179;SDS011;11758;45.756;11.432;2023-05-10T12:15:20;7.03;;;5.03;;
23179;SDS011;11758;45.756;11.432;2023-05-10T12:17:47;6.13;;;4.88;;
23179;SDS011;11758;45.756;11.432;2023-05-10T12:20:17;6.57;;;5.40;;
23179;SDS011;11758;45.756;11.432;2023-05-10T12:22:44;7.25;;;6.55;;
23179;SDS011;11758;45.756;11.432;2023-05-10T12:25:10;6.15;;;5.55;;
23179;SDS011;11758;45.756;11.432;2023-05-10T12:27:37;6.95;;;6.20;;
23179;SDS011;11758;45.756;11.432;2023-05-10T12:30:03;7.63;;;6.78;;
23179;SDS011;11758;45.756;11.432;2023-05-10T12:32:43;7.22;;;6.00;;
23179;SDS011;11758;45.756;11.432;2023-05-10T12:35:09;7.20;;;6.15;;
23179;SDS011;11758;45.756;11.432;2023-05-10T12:37:35;10.20;;;6.53;;
23179;SDS011;11758;45.756;11.432;2023-05-10T12:40:06;6.43;;;5.70;;
23179;SDS011;11758;45.756;11.432;2023-05-10T12:42:33;6.18;;;5.57;;
23179;SDS011;11758;45.756;11.432;2023-05-10T12:45:00;6.45;;;5.82;;
23179;SDS011;11758;45.756;11.432;2023-05-10T12:47:27;7.72;;;6.93;;
23179;SDS011;11758;45.756;11.432;2023-05-10T12:49:53;6.00;;;5.50;;
23179;SDS011;11758;45.756;11.432;2023-05-10T12:52:20;5.97;;;5.47;;
23179;SDS011;11758;45.756;11.432;2023-05-10T12:54:46;6.28;;;5.68;;
23179;SDS011;11758;45.756;11.432;2023-05-10T12:57:12;8.07;;;5.78;;
23179;SDS011;11758;45.756;11.432;2023-05-10T12:59:39;6.97;;;6.30;;
23179;SDS011;11758;45.756;11.432;2023-05-10T13:02:05;7.88;;;6.05;;
23179;SDS011;11758;45.756;11.432;2023-05-10T13:04:32;8.85;;;5.80;;
23179;SDS011;11758;45.756;11.432;2023-05-10T13:06:58;6.60;;;6.00;;
23179;SDS011;11758;45.756;11.432;2023-05-10T13:09:24;14.95;;;9.88;;
23179;SDS011;11758;45.756;11.432;2023-05-10T13:11:51;9.43;;;8.15;;
23179;SDS011;11758;45.756;11.432;2023-05-10T13:14:19;8.15;;;6.05;;
23179;SDS011;11758;45.756;11.432;2023-05-10T13:16:48;6.30;;;5.70;;
23179;SDS011;11758;45.756;11.432;2023-05-10T13:19:15;5.78;;;5.18;;
23179;SDS011;11758;45.756;11.432;2023-05-10T13:21:41;9.15;;;7.40;;
23179;SDS011;11758;45.756;11.432;2023-05-10T13:24:09;5.40;;;4.90;;
23179;SDS011;11758;45.756;11.432;2023-05-10T13:26:35;10.27;;;7.25;;
23179;SDS011;11758;45.756;11.432;2023-05-10T13:29:02;8.10;;;5.78;;
23179;SDS011;11758;45.756;11.432;2023-05-10T13:31:28;6.90;;;6.22;;
23179;SDS011;11758;45.756;11.432;2023-05-10T13:33:55;5.82;;;5.32;;
23179;SDS011;11758;45.756;11.432;2023-05-10T13:36:21;6.30;;;5.70;;
23179;SDS011;11758;45.756;11.432;2023-05-10T13:38:47;6.18;;;5.35;;
23179;SDS011;11758;45.756;11.432;2023-05-10T13:41:14;5.97;;;5.43;;
23179;SDS011;11758;45.756;11.432;2023-05-10T13:43:40;6.40;;;5.85;;
23179;SDS011;11758;45.756;11.432;2023-05-10T13:46:06;9.18;;;5.75;;
23179;SDS011;11758;45.756;11.432;2023-05-10T13:48:32;7.82;;;5.95;;
23179;SDS011;11758;45.756;11.432;2023-05-10T13:51:03;7.00;;;6.30;;
23179;SDS011;11758;45.756;11.432;2023-05-10T13:53:29;13.55;;;8.70;;
23179;SDS011;11758;45.756;11.432;2023-05-10T13:55:55;8.25;;;6.03;;
23179;SDS011;11758;45.756;11.432;2023-05-10T13:58:22;6.50;;;5.40;;
23179;SDS011;11758;45.756;11.432;2023-05-10T14:00:48;6.20;;;5.70;;
23179;SDS011;11758;45.756;11.432;2023-05-10T14:03:14;7.97;;;6.07;;
23179;SDS011;11758;45.756;11.432;2023-05-10T14:05:45;10.90;;;7.20;;
23179;SDS011;11758;45.756;11.432;2023-05-10T14:08:34;8.43;;;6.85;;
23179;SDS011;11758;45.756;11.432;2023-05-10T14:11:02;11.35;;;7.28;;
23179;SDS011;11758;45.756;11.432;2023-05-10T14:13:32;7.10;;;6.43;;
23179;SDS011;11758;45.756;11.432;2023-05-10T14:15:59;7.93;;;7.00;;
23179;SDS011;11758;45.756;11.432;2023-05-10T14:18:27;7.47;;;6.78;;
23179;SDS011;11758;45.756;11.432;2023-05-10T14:20:53;8.73;;;6.72;;
23179;SDS011;11758;45.756;11.432;2023-05-10T14:23:21;7.32;;;6.38;;
23179;SDS011;11758;45.756;11.432;2023-05-10T14:25:50;8.00;;;6.47;;
23179;SDS011;11758;45.756;11.432;2023-05-10T14:28:16;6.72;;;6.03;;
23179;SDS011;11758;45.756;11.432;2023-05-10T14:30:43;6.30;;;5.60;;
23179;SDS011;11758;45.756;11.432;2023-05-10T14:33:10;5.75;;;5.25;;
23179;SDS011;11758;45.756;11.432;2023-05-10T14:35:37;6.28;;;5.43;;
23179;SDS011;11758;45.756;11.432;2023-05-10T14:38:03;5.53;;;5.10;;
23179;SDS011;11758;45.756;11.432;2023-05-10T14:40:29;8.30;;;6.65;;
23179;SDS011;11758;45.756;11.432;2023-05-10T14:42:56;6.32;;;5.55;;
23179;SDS011;11758;45.756;11.432;2023-05-10T14:45:22;6.32;;;5.03;;
23179;SDS011;11758;45.756;11.432;2023-05-10T14:47:48;4.45;;;4.15;;
23179;SDS011;11758;45.756;11.432;2023-05-10T14:50:15;5.72;;;5.22;;
23179;SDS011;11758;45.756;11.432;2023-05-10T14:52:42;4.70;;;4.40;;
23179;SDS011;11758;45.756;11.432;2023-05-10T14:55:09;4.47;;;4.15;;
23179;SDS011;11758;45.756;11.432;2023-05-10T14:57:36;5.50;;;5.00;;
23179;SDS011;11758;45.756;11.432;2023-05-10T15:00:03;27.08;;;17.45;;
23179;SDS011;11758;45.756;11.432;2023-05-10T15:02:30;12.77;;;9.05;;
23179;SDS011;11758;45.756;11.432;2023-05-10T15:04:56;15.93;;;11.93;;
23179;SDS011;11758;45.756;11.432;2023-05-10T15:07:23;7.80;;;6.97;;
23179;SDS011;11758;45.756;11.432;2023-05-10T15:09:52;7.90;;;7.10;;
23179;SDS011;11758;45.756;11.432;2023-05-10T15:12:19;7.32;;;6.32;;
23179;SDS011;11758;45.756;11.432;2023-05-10T15:14:45;8.98;;;6.90;;
23179;SDS011;11758;45.756;11.432;2023-05-10T15:17:11;7.07;;;6.38;;
23179;SDS011;11758;45.756;11.432;2023-05-10T15:19:38;7.20;;;6.50;;
23179;SDS011;11758;45.756;11.432;2023-05-10T15:22:04;6.95;;;6.28;;
23179;SDS011;11758;45.756;11.432;2023-05-10T15:24:30;8.88;;;6.55;;